Champion, Michigan
Current Conditions -  °F | °C
As of 1:57 AM on Monday 22 Dec 2014 (Local Time) from KSAW Reporting Station
Light Snow Light Snow  
Wind Chill: 22°   Ceiling: 900
Heat Index: 33°   Visibility: 3mi
Dew Point: 32°   Wind: 20mph
Humidity: 95%   Direction: 200°SSW
Pressure: 29.9"   Gusts: 25mph
Location:  46.51°N, 87.96°W
Report Text: KSAW 220657Z AUTO 20017G22KT 3SM -SN BKN009 OVC013 01/00 A2990 RMK AO2 T00070000
Loading
Personal Weather Stations






























Interactive Weather Map New forecast layout! Learn more

10-Day Weather Forecast

Advertisements
Track Severe Weather on mobile